Renton, WA (98056)

3:21 AM PDT on September 02, 2015 (GMT -0700)
Lakeridge/Skyway | | Change Station
CLOSE
Current Station
Personal Weather Station
Location: Seattle, WA
Elevation: 272 ft
Nearby Weather Stations

Elev 272 ft 47.50 °N, 122.24 °W | Updated 11 minutes ago

Overcast
Overcast
56.1 °F
Feels Like 56.1 °F
N
3.0
Wind Variable Wind from SSE
Gusts 10.0 mph

Today
High -- | Low -- °F
--% Chance of Precip.
Yesterday
High -- | Low -- °F
Precip. -- in
6:28 AM 7:47 PM
Waning Gibbous, 81% visible
Pressure 29.80 in
Visibility 10.0 miles
Clouds Mostly Cloudy 2100 ft
Overcast 9500 ft
Dew Point 54 °F
Humidity 92%
Rainfall 0.00 in
Snow Depth Not available.
UV 0 out of 12
Pollen .40 out of 12
Air Quality Not available.
Flu Activity Not available.
SPECI KRNT 021016Z AUTO 14009G15KT 10SM BKN021 OVC095 14/12 A2980 RMK AO2 T01440117 $
Pressure 29.80 in
Visibility 10.0 miles
Clouds Mostly Cloudy 2100 ft
Overcast 9500 ft
Dew Point 54 °F
Humidity 92%
Rainfall 0.00 in
Snow Depth Not available.
UV 0 out of 12
Pollen .40 out of 12
Air Quality Not available.
Flu Activity Not available.
SPECI KRNT 021016Z AUTO 14009G15KT 10SM BKN021 OVC095 14/12 A2980 RMK AO2 T01440117 $

10-Day Weather Forecast

×

Almanac

Astronomy

Sep. 02, 2015 Rise Set
Actual Time
Civil Twilight
Nautical Twilight
Astronomical Twilight
Moon
Length of Visible Light
Length of Day
Tomorrow will be .
, % of the Moon is Illuminated

Today's Extremes

State Highs State Lows

Community

WunderPhotos

Upload Photos

1,851,734 photos uploaded!

WunderBlogs® & News

Nearby

Air Quality

  Air Quality AQ Index Pollutant
Not available.

Snow Depth

Station Depth Elevation

Earthquake Activity

City Distance Mag. Time & Date
Minimum magnitude displayed is 2.5.

Coastal Water Temperatures

Place Temperature

Stations

Nearby Weather Stations

Station Location Temp. Windchill Dew Point Humidity Wind Precip. Elev Updated Type